Time;durP1;ratioP1;P1;durP2;ratioP2;P2;SDS_P1;SDS_P2;PMS_P1;PMS_P2;Temp;Humidity;BMP_temperature;BMP_pressure;BME280_temperature;BME280_humidity;BME280_pressure;Samples;Min_cycle;Max_cycle;Signal;HPM_P1;HPM_P2
2021/11/11 00:00:25;;;;;;;;;103.00;95.67;;;;;;;;5071204;28;51023;-65
2021/11/11 00:02:50;;;;;;;;;115.67;100.33;;;;;;;;5070804;28;50527;-61
2021/11/11 00:05:15;;;;;;;;;105.67;92.00;;;;;;;;5071239;28;49656;-61
2021/11/11 00:07:40;;;;;;;;;109.67;103.33;;;;;;;;5071000;28;49934;-61
2021/11/11 00:10:09;;;;;;;;;101.67;93.67;;;;;;;;5071402;28;50039;-61
2021/11/11 00:12:35;;;;;;;;;100.00;88.33;;;;;;;;5067867;28;49950;-61
2021/11/11 00:15:00;;;;;;;;;119.33;100.33;;;;;;;;5070994;28;49806;-60
2021/11/11 00:17:26;;;;;;;;;103.67;92.33;;;;;;;;5071279;28;50610;-61
2021/11/11 00:19:52;;;;;;;;;110.67;96.00;;;;;;;;5071091;28;49936;-62
2021/11/11 00:22:17;;;;;;;;;106.67;101.67;;;;;;;;5070681;28;50816;-62
2021/11/11 00:24:42;;;;;;;;;112.67;102.33;;;;;;;;5070432;28;50052;-62
2021/11/11 00:27:08;;;;;;;;;98.33;88.00;;;;;;;;5071876;28;50073;-61
2021/11/11 00:29:33;;;;;;;;;111.33;98.00;;;;;;;;5072750;28;49554;-63
2021/11/11 00:31:58;;;;;;;;;109.33;99.67;;;;;;;;5072086;28;49810;-62
2021/11/11 00:34:24;;;;;;;;;101.33;88.67;;;;;;;;5071734;28;68932;-61
2021/11/11 00:36:49;;;;;;;;;106.33;92.67;;;;;;;;5071653;28;58109;-66
2021/11/11 00:39:14;;;;;;;;;112.33;98.00;;;;;;;;5072347;28;49720;-62
2021/11/11 00:41:39;;;;;;;;;98.33;81.67;;;;;;;;5071445;28;68819;-61
2021/11/11 00:44:04;;;;;;;;;102.33;90.33;;;;;;;;5072102;28;49916;-61
2021/11/11 00:46:30;;;;;;;;;104.00;92.33;;;;;;;;5071966;28;49808;-64
2021/11/11 00:48:55;;;;;;;;;102.67;94.67;;;;;;;;5072319;28;49632;-62
2021/11/11 00:51:20;;;;;;;;;104.33;93.00;;;;;;;;5071701;28;50277;-62
2021/11/11 00:53:46;;;;;;;;;117.00;105.33;;;;;;;;5071634;27;57523;-63
2021/11/11 00:56:11;;;;;;;;;119.00;104.67;;;;;;;;5071710;28;55633;-62
2021/11/11 00:58:36;;;;;;;;;121.75;117.00;;;;;;;;5053893;28;50041;-62
2021/11/11 01:01:02;;;;;;;;;123.25;112.50;;;;;;;;5071815;28;49711;-61
2021/11/11 01:03:34;;;;;;;;;132.00;111.00;;;;;;;;5071842;28;49883;-61
2021/11/11 01:05:59;;;;;;;;;127.50;111.75;;;;;;;;5071655;28;49704;-61
2021/11/11 01:08:26;;;;;;;;;137.00;115.67;;;;;;;;5071980;28;49522;-63
2021/11/11 01:10:51;;;;;;;;;133.50;111.00;;;;;;;;5071665;28;49810;-61
2021/11/11 01:13:16;;;;;;;;;117.67;102.67;;;;;;;;5071475;28;51845;-65
2021/11/11 01:15:42;;;;;;;;;129.67;116.00;;;;;;;;5071647;28;50897;-62
2021/11/11 01:18:07;;;;;;;;;125.00;112.00;;;;;;;;5071815;28;49804;-61
2021/11/11 01:20:32;;;;;;;;;136.50;119.50;;;;;;;;5071504;28;50211;-61
2021/11/11 01:22:57;;;;;;;;;140.75;124.25;;;;;;;;5071064;28;50012;-61
2021/11/11 01:25:23;;;;;;;;;124.00;114.50;;;;;;;;5070401;28;49806;-61
2021/11/11 01:27:49;;;;;;;;;140.00;124.25;;;;;;;;5053585;28;49848;-61
2021/11/11 01:30:14;;;;;;;;;137.00;118.50;;;;;;;;5071341;28;50764;-61
2021/11/11 01:32:39;;;;;;;;;129.75;114.75;;;;;;;;5071286;28;49800;-61
2021/11/11 01:35:04;;;;;;;;;129.67;120.67;;;;;;;;5071218;28;50685;-61
2021/11/11 01:37:30;;;;;;;;;140.75;129.00;;;;;;;;5071275;28;49568;-60
2021/11/11 01:39:55;;;;;;;;;146.67;115.00;;;;;;;;5071027;28;50791;-61
2021/11/11 01:42:20;;;;;;;;;120.00;112.33;;;;;;;;5071013;28;54601;-61
2021/11/11 01:44:49;;;;;;;;;126.75;114.25;;;;;;;;5071249;28;49557;-60
2021/11/11 01:47:14;;;;;;;;;124.00;112.00;;;;;;;;5071344;28;49591;-61
2021/11/11 01:49:39;;;;;;;;;118.33;110.33;;;;;;;;5071045;28;49777;-61
2021/11/11 01:52:05;;;;;;;;;129.00;106.33;;;;;;;;5070374;28;59522;-61
2021/11/11 01:54:30;;;;;;;;;128.00;114.75;;;;;;;;5071280;28;50529;-61
2021/11/11 01:56:55;;;;;;;;;123.00;111.00;;;;;;;;5070620;28;55638;-61
2021/11/11 01:59:20;;;;;;;;;125.75;113.75;;;;;;;;5052553;28;49807;-61
2021/11/11 02:01:45;;;;;;;;;127.33;113.67;;;;;;;;5071029;27;49789;-61
2021/11/11 02:04:10;;;;;;;;;125.33;109.33;;;;;;;;5070831;28;50048;-61
2021/11/11 02:06:36;;;;;;;;;123.33;115.33;;;;;;;;5070836;28;49859;-61
2021/11/11 02:09:01;;;;;;;;;129.25;113.75;;;;;;;;5070676;28;50101;-61
2021/11/11 02:11:26;;;;;;;;;116.00;102.25;;;;;;;;5070874;28;49678;-60
2021/11/11 02:13:52;;;;;;;;;120.67;109.67;;;;;;;;5070515;28;57475;-61
2021/11/11 02:16:17;;;;;;;;;111.25;106.25;;;;;;;;5071046;28;50046;-61
2021/11/11 02:18:42;;;;;;;;;125.00;116.00;;;;;;;;5070010;28;68775;-61
2021/11/11 02:21:07;;;;;;;;;120.75;109.75;;;;;;;;5069658;28;49777;-61
2021/11/11 02:23:33;;;;;;;;;130.00;108.25;;;;;;;;5070500;28;49656;-61
2021/11/11 02:25:59;;;;;;;;;123.25;107.50;;;;;;;;5070774;27;49835;-60
2021/11/11 02:28:24;;;;;;;;;124.75;114.50;;;;;;;;5070402;28;51479;-61
2021/11/11 02:30:52;;;;;;;;;134.33;118.33;;;;;;;;5070155;28;61436;-62
2021/11/11 02:33:20;;;;;;;;;115.33;101.33;;;;;;;;5070525;28;49736;-62
2021/11/11 02:35:45;;;;;;;;;130.50;112.00;;;;;;;;5070271;28;49670;-61
2021/11/11 02:38:10;;;;;;;;;115.50;103.00;;;;;;;;5070062;28;50253;-61
2021/11/11 02:40:36;;;;;;;;;127.50;112.75;;;;;;;;5070398;28;49851;-65
2021/11/11 02:43:01;;;;;;;;;124.67;107.33;;;;;;;;5070521;28;49883;-61
2021/11/11 02:45:30;;;;;;;;;123.00;112.50;;;;;;;;5070471;28;49958;-61
2021/11/11 02:47:55;;;;;;;;;122.50;107.25;;;;;;;;5069567;28;50561;-61
2021/11/11 02:50:21;;;;;;;;;116.67;103.67;;;;;;;;5070209;28;49550;-62
2021/11/11 02:52:49;;;;;;;;;112.33;102.33;;;;;;;;5052026;28;49697;-62
2021/11/11 02:55:15;;;;;;;;;115.67;99.67;;;;;;;;5070478;28;49705;-65
2021/11/11 02:57:40;;;;;;;;;113.67;100.67;;;;;;;;5070111;28;50375;-61
2021/11/11 03:00:26;;;;;;;;;105.00;91.67;;;;;;;;5070110;28;49927;-65
2021/11/11 03:02:51;;;;;;;;;108.67;93.67;;;;;;;;5069700;28;49661;-61
2021/11/11 03:05:18;;;;;;;;;106.00;95.00;;;;;;;;5070079;28;49732;-61
2021/11/11 03:07:43;;;;;;;;;109.33;91.33;;;;;;;;5069780;28;49797;-60
2021/11/11 03:10:09;;;;;;;;;100.67;86.00;;;;;;;;5069947;28;49897;-60
2021/11/11 03:12:34;;;;;;;;;106.33;91.00;;;;;;;;5051999;28;49702;-61
2021/11/11 03:14:59;;;;;;;;;101.00;83.67;;;;;;;;5051635;28;52021;-60
2021/11/11 03:17:25;;;;;;;;;105.00;93.67;;;;;;;;5069623;28;50371;-64
2021/11/11 03:19:50;;;;;;;;;105.33;93.00;;;;;;;;5070035;28;49935;-61
2021/11/11 03:22:17;;;;;;;;;102.00;92.00;;;;;;;;5069794;28;49703;-60
2021/11/11 03:24:43;;;;;;;;;102.33;90.33;;;;;;;;5069657;28;49824;-60
2021/11/11 03:27:08;;;;;;;;;100.67;89.33;;;;;;;;5051514;28;51600;-61
2021/11/11 03:29:33;;;;;;;;;105.00;87.67;;;;;;;;5069615;28;49751;-61
2021/11/11 03:31:59;;;;;;;;;99.33;79.67;;;;;;;;5069821;28;49695;-60
2021/11/11 03:34:24;;;;;;;;;106.33;88.33;;;;;;;;5052041;28;49774;-60
2021/11/11 03:36:53;;;;;;;;;105.00;92.33;;;;;;;;5051250;28;50377;-65
2021/11/11 03:39:18;;;;;;;;;100.33;82.67;;;;;;;;5069767;28;49655;-60
2021/11/11 03:41:44;;;;;;;;;97.33;77.33;;;;;;;;5069688;28;49717;-60
2021/11/11 03:44:09;;;;;;;;;99.33;84.33;;;;;;;;5069987;28;49892;-61
2021/11/11 03:46:34;;;;;;;;;102.00;84.00;;;;;;;;5068954;27;65832;-60
2021/11/11 03:49:00;;;;;;;;;95.67;79.33;;;;;;;;5071888;28;49852;-60
2021/11/11 03:51:25;;;;;;;;;92.67;70.33;;;;;;;;5072907;28;49834;-60
2021/11/11 03:53:51;;;;;;;;;95.33;78.00;;;;;;;;5073339;28;49977;-60
2021/11/11 03:56:16;;;;;;;;;98.67;81.00;;;;;;;;5072941;28;50513;-61
2021/11/11 03:58:44;;;;;;;;;94.67;77.33;;;;;;;;5073119;28;49864;-61
2021/11/11 04:01:09;;;;;;;;;97.33;84.00;;;;;;;;5073033;27;49700;-60
2021/11/11 04:03:35;;;;;;;;;96.00;81.67;;;;;;;;5073262;28;49785;-60
2021/11/11 04:06:00;;;;;;;;;95.33;76.67;;;;;;;;5053943;28;50377;-60
2021/11/11 04:08:25;;;;;;;;;92.67;72.00;;;;;;;;5072600;28;53011;-60
2021/11/11 04:10:50;;;;;;;;;89.00;66.00;;;;;;;;5072286;28;59539;-60
2021/11/11 04:13:15;;;;;;;;;91.33;72.00;;;;;;;;5072674;27;50258;-60
2021/11/11 04:15:40;;;;;;;;;92.67;70.33;;;;;;;;5072023;28;65425;-61
2021/11/11 04:18:06;;;;;;;;;95.67;72.33;;;;;;;;5072197;28;59616;-61
2021/11/11 04:20:31;;;;;;;;;93.67;74.33;;;;;;;;5072105;28;59225;-61
2021/11/11 04:22:56;;;;;;;;;94.67;77.67;;;;;;;;5072364;27;49637;-60
2021/11/11 04:25:28;;;;;;;;;95.33;77.00;;;;;;;;5072182;28;50442;-60
2021/11/11 04:28:01;;;;;;;;;93.33;75.33;;;;;;;;5072549;28;49780;-61
2021/11/11 04:30:29;;;;;;;;;94.00;78.00;;;;;;;;5072474;28;49825;-60
2021/11/11 04:32:54;;;;;;;;;98.00;75.33;;;;;;;;5072601;28;49787;-60
2021/11/11 04:35:20;;;;;;;;;96.00;80.67;;;;;;;;5072194;28;50526;-60
2021/11/11 04:40:57;;;;;;;;;96.67;79.67;;;;;;;;5072317;28;49765;-60
2021/11/11 04:59:59;;;;;;;;;100.00;83.00;;;;;;;;5071712;28;49691;-61
2021/11/11 05:04:49;;;;;;;;;98.67;76.67;;;;;;;;5072026;28;49920;-60
2021/11/11 05:07:14;;;;;;;;;98.00;77.33;;;;;;;;5053094;28;52704;-60
2021/11/11 05:09:39;;;;;;;;;92.33;73.33;;;;;;;;5071490;28;49803;-62
2021/11/11 05:12:05;;;;;;;;;98.33;81.67;;;;;;;;5071807;28;49864;-61
2021/11/11 05:14:30;;;;;;;;;92.33;69.67;;;;;;;;5071729;28;49764;-60
2021/11/11 05:16:55;;;;;;;;;106.67;89.67;;;;;;;;5071007;28;64534;-60
2021/11/11 05:19:20;;;;;;;;;99.00;77.67;;;;;;;;5071052;28;60122;-61
2021/11/11 05:21:45;;;;;;;;;95.00;79.33;;;;;;;;5071239;28;49672;-60
2021/11/11 05:24:11;;;;;;;;;101.33;86.00;;;;;;;;5071575;28;50086;-62
2021/11/11 05:26:37;;;;;;;;;97.00;82.33;;;;;;;;5071260;28;50610;-61
2021/11/11 05:29:02;;;;;;;;;95.00;76.33;;;;;;;;5071293;27;49482;-62
2021/11/11 05:31:27;;;;;;;;;96.00;79.33;;;;;;;;5071479;28;49637;-60
2021/11/11 05:33:52;;;;;;;;;97.00;82.67;;;;;;;;5071032;28;54574;-60
2021/11/11 05:36:17;;;;;;;;;97.00;73.00;;;;;;;;5070371;28;64574;-60
2021/11/11 05:38:43;;;;;;;;;102.00;80.67;;;;;;;;5070745;28;60473;-60
2021/11/11 05:41:08;;;;;;;;;103.67;82.33;;;;;;;;5071249;28;49787;-61
2021/11/11 05:43:33;;;;;;;;;103.00;82.33;;;;;;;;5071502;28;49794;-61
2021/11/11 05:45:58;;;;;;;;;92.67;75.33;;;;;;;;5070913;28;49522;-60
2021/11/11 05:48:23;;;;;;;;;92.33;71.67;;;;;;;;5071207;27;49756;-62
2021/11/11 05:50:49;;;;;;;;;102.67;88.33;;;;;;;;5071030;28;49704;-60
2021/11/11 05:53:14;;;;;;;;;96.33;75.67;;;;;;;;5070794;28;59389;-60
2021/11/11 05:55:39;;;;;;;;;102.67;82.00;;;;;;;;5070788;28;50013;-61
2021/11/11 05:58:04;;;;;;;;;86.67;65.33;;;;;;;;5070819;28;49742;-60
2021/11/11 06:00:29;;;;;;;;;93.00;76.33;;;;;;;;5070958;28;49836;-60
2021/11/11 06:02:55;;;;;;;;;93.67;75.67;;;;;;;;5070795;28;52402;-60
2021/11/11 06:05:21;;;;;;;;;91.67;74.00;;;;;;;;5070793;28;49737;-62
2021/11/11 06:07:46;;;;;;;;;101.67;77.00;;;;;;;;5070494;27;49807;-60
2021/11/11 06:10:11;;;;;;;;;98.33;76.33;;;;;;;;5070397;27;49735;-61
2021/11/11 06:12:37;;;;;;;;;98.33;77.00;;;;;;;;5070464;28;49939;-61
2021/11/11 06:15:03;;;;;;;;;93.00;72.33;;;;;;;;5070626;28;50634;-61
2021/11/11 06:17:28;;;;;;;;;94.67;71.67;;;;;;;;5070738;28;49952;-61
2021/11/11 06:19:53;;;;;;;;;96.33;75.33;;;;;;;;5070603;28;49707;-61
2021/11/11 06:22:22;;;;;;;;;97.67;74.33;;;;;;;;5070701;28;49870;-61
2021/11/11 06:24:47;;;;;;;;;93.67;74.33;;;;;;;;5051940;28;49746;-62
2021/11/11 06:27:12;;;;;;;;;95.00;78.33;;;;;;;;5070582;27;49628;-61
2021/11/11 06:29:38;;;;;;;;;91.33;75.33;;;;;;;;5070223;28;49686;-61
2021/11/11 06:32:03;;;;;;;;;97.33;75.33;;;;;;;;5070801;28;49653;-62
2021/11/11 06:34:28;;;;;;;;;93.00;78.33;;;;;;;;5052527;28;50737;-62
2021/11/11 06:36:53;;;;;;;;;93.00;74.00;;;;;;;;5052053;28;49653;-62
2021/11/11 06:39:18;;;;;;;;;96.67;76.67;;;;;;;;5070357;28;49725;-62
2021/11/11 06:41:44;;;;;;;;;93.00;72.67;;;;;;;;5070816;28;49835;-64
2021/11/11 06:44:10;;;;;;;;;93.67;72.67;;;;;;;;5069891;27;63729;-62
2021/11/11 06:46:36;;;;;;;;;94.00;71.67;;;;;;;;5070368;28;49802;-62
2021/11/11 06:49:01;;;;;;;;;94.00;72.33;;;;;;;;5070878;28;49971;-66
2021/11/11 06:51:26;;;;;;;;;95.00;76.33;;;;;;;;5052367;28;49748;-60
2021/11/11 06:53:52;;;;;;;;;98.00;77.67;;;;;;;;5070209;28;50439;-60
2021/11/11 06:56:17;;;;;;;;;97.67;77.33;;;;;;;;5069809;28;49586;-60
2021/11/11 06:58:42;;;;;;;;;94.67;77.33;;;;;;;;5052023;28;49654;-60
2021/11/11 07:01:07;;;;;;;;;91.67;72.00;;;;;;;;5070405;28;49903;-61
2021/11/11 07:03:32;;;;;;;;;100.00;87.33;;;;;;;;5070011;28;50543;-60
2021/11/11 07:05:58;;;;;;;;;92.33;71.00;;;;;;;;5051337;28;53366;-60
2021/11/11 07:08:23;;;;;;;;;99.33;79.67;;;;;;;;5069699;28;49897;-60
2021/11/11 07:10:49;;;;;;;;;93.33;70.67;;;;;;;;5070283;28;49626;-60
2021/11/11 07:13:14;;;;;;;;;97.33;83.33;;;;;;;;5069992;28;50421;-61
2021/11/11 07:15:41;;;;;;;;;97.67;80.67;;;;;;;;5070086;28;49653;-62
2021/11/11 07:18:08;;;;;;;;;95.33;75.67;;;;;;;;5070094;28;50365;-60
2021/11/11 07:20:33;;;;;;;;;98.33;80.00;;;;;;;;5069942;28;49680;-61
2021/11/11 07:23:00;;;;;;;;;95.00;73.67;;;;;;;;5070525;27;50705;-60
2021/11/11 07:25:26;;;;;;;;;98.33;78.67;;;;;;;;5073451;27;50047;-61
2021/11/11 07:27:52;;;;;;;;;103.00;81.67;;;;;;;;5073622;28;49926;-61
2021/11/11 07:30:18;;;;;;;;;99.00;77.00;;;;;;;;5073552;28;49719;-60
2021/11/11 07:32:43;;;;;;;;;98.33;81.67;;;;;;;;5073424;28;51318;-61
2021/11/11 07:35:09;;;;;;;;;94.33;78.00;;;;;;;;5073025;28;58047;-61
2021/11/11 07:37:36;;;;;;;;;101.33;86.00;;;;;;;;5073163;28;49658;-61
2021/11/11 07:40:02;;;;;;;;;101.00;85.00;;;;;;;;5073629;28;49652;-61
2021/11/11 07:42:27;;;;;;;;;102.00;85.00;;;;;;;;5073100;28;49634;-61
2021/11/11 07:44:52;;;;;;;;;95.67;78.00;;;;;;;;5072717;27;60224;-60
2021/11/11 07:47:26;;;;;;;;;99.33;86.67;;;;;;;;5072928;28;51139;-62
2021/11/11 07:49:51;;;;;;;;;99.00;83.33;;;;;;;;5073235;28;49640;-62
2021/11/11 07:52:16;;;;;;;;;103.33;88.33;;;;;;;;5072789;28;50494;-61
2021/11/11 07:54:41;;;;;;;;;89.00;70.67;;;;;;;;5072985;28;49829;-62
2021/11/11 07:57:07;;;;;;;;;91.33;73.67;;;;;;;;5072707;27;56623;-63
2021/11/11 07:59:34;;;;;;;;;93.33;78.00;;;;;;;;5073319;28;49791;-61
2021/11/11 08:01:59;;;;;;;;;84.67;67.33;;;;;;;;5072749;28;49656;-63
2021/11/11 08:04:24;;;;;;;;;98.00;78.33;;;;;;;;5054483;27;49652;-62
2021/11/11 08:06:49;;;;;;;;;89.33;71.33;;;;;;;;5072018;27;59630;-62
2021/11/11 08:09:14;;;;;;;;;91.00;73.67;;;;;;;;5072595;28;54062;-61
2021/11/11 08:11:40;;;;;;;;;89.00;73.00;;;;;;;;5072187;28;67342;-61
2021/11/11 08:14:06;;;;;;;;;87.33;68.67;;;;;;;;5072734;27;49587;-62
2021/11/11 08:16:31;;;;;;;;;93.33;69.67;;;;;;;;5072883;28;49810;-61
2021/11/11 08:18:58;;;;;;;;;81.33;66.00;;;;;;;;5072860;28;49707;-61
2021/11/11 08:21:23;;;;;;;;;84.33;66.00;;;;;;;;5072317;28;49723;-61
2021/11/11 08:23:48;;;;;;;;;87.00;66.33;;;;;;;;5071985;28;59090;-63
2021/11/11 08:26:14;;;;;;;;;89.67;69.00;;;;;;;;5072536;27;49775;-70
2021/11/11 08:28:39;;;;;;;;;82.67;65.67;;;;;;;;5054636;28;49645;-62
2021/11/11 08:31:04;;;;;;;;;81.00;63.33;;;;;;;;5072419;28;49736;-63
2021/11/11 08:33:29;;;;;;;;;88.00;70.33;;;;;;;;5072007;28;50101;-63
2021/11/11 08:35:54;;;;;;;;;84.67;66.67;;;;;;;;5072290;27;49748;-62
2021/11/11 08:38:20;;;;;;;;;83.33;63.67;;;;;;;;5072082;28;49646;-65
2021/11/11 08:40:45;;;;;;;;;88.67;71.00;;;;;;;;5072258;28;49620;-61
2021/11/11 08:43:10;;;;;;;;;82.00;64.33;;;;;;;;5054210;28;49937;-61
2021/11/11 08:45:35;;;;;;;;;88.00;70.00;;;;;;;;5072188;28;49921;-64
2021/11/11 08:48:01;;;;;;;;;80.33;62.33;;;;;;;;5054455;28;49684;-61
2021/11/11 08:50:30;;;;;;;;;86.67;68.00;;;;;;;;5071842;27;49586;-73
2021/11/11 08:52:55;;;;;;;;;84.67;67.00;;;;;;;;5054200;28;49696;-69
2021/11/11 08:55:22;;;;;;;;;91.33;67.67;;;;;;;;5072222;28;50145;-60
2021/11/11 08:57:47;;;;;;;;;87.33;68.33;;;;;;;;5072266;28;50522;-63
2021/11/11 09:00:15;;;;;;;;;91.67;70.00;;;;;;;;5072027;27;49674;-60
2021/11/11 09:02:40;;;;;;;;;91.00;72.33;;;;;;;;5072069;27;49934;-59
2021/11/11 09:05:06;;;;;;;;;92.33;68.67;;;;;;;;5072013;27;49771;-62
2021/11/11 09:07:31;;;;;;;;;90.67;69.33;;;;;;;;5071749;28;50023;-60
2021/11/11 09:09:57;;;;;;;;;86.00;67.33;;;;;;;;5071719;28;49740;-62
2021/11/11 09:12:22;;;;;;;;;96.00;74.67;;;;;;;;5071529;28;52479;-61
2021/11/11 09:14:47;;;;;;;;;88.33;69.33;;;;;;;;5071858;28;49886;-61
2021/11/11 09:17:12;;;;;;;;;92.33;73.33;;;;;;;;5071978;28;49690;-67
2021/11/11 09:19:38;;;;;;;;;98.67;79.00;;;;;;;;5071094;28;49947;-63
2021/11/11 09:22:04;;;;;;;;;95.33;75.33;;;;;;;;5071459;27;49660;-60
2021/11/11 09:24:29;;;;;;;;;96.33;78.00;;;;;;;;5071597;28;49806;-61
2021/11/11 09:26:55;;;;;;;;;92.67;71.67;;;;;;;;5071813;28;50009;-60
2021/11/11 09:29:21;;;;;;;;;92.00;73.33;;;;;;;;5071440;28;49705;-63
2021/11/11 09:31:47;;;;;;;;;93.33;74.33;;;;;;;;5071482;28;49722;-61
2021/11/11 09:34:12;;;;;;;;;91.67;76.00;;;;;;;;5071569;28;49767;-60
2021/11/11 09:36:37;;;;;;;;;88.67;70.67;;;;;;;;5071570;28;49991;-60
2021/11/11 09:39:03;;;;;;;;;100.67;82.00;;;;;;;;5071310;28;52367;-59
2021/11/11 09:41:28;;;;;;;;;95.67;80.33;;;;;;;;5071209;28;49914;-59
2021/11/11 09:43:54;;;;;;;;;99.33;80.33;;;;;;;;5053170;28;49729;-60
2021/11/11 09:46:20;;;;;;;;;96.00;80.00;;;;;;;;5070484;28;49729;-59
2021/11/11 09:48:45;;;;;;;;;94.67;79.67;;;;;;;;5052942;28;49776;-62
2021/11/11 09:51:12;;;;;;;;;96.00;78.00;;;;;;;;5071007;28;49754;-69
2021/11/11 09:53:49;;;;;;;;;94.33;77.00;;;;;;;;5071400;28;49491;-63
2021/11/11 09:58:59;;;;;;;;;95.33;79.33;;;;;;;;5070937;28;50268;-60
2021/11/11 10:01:24;;;;;;;;;95.67;85.33;;;;;;;;5070854;28;54886;-60
2021/11/11 10:03:50;;;;;;;;;97.67;88.00;;;;;;;;5071259;28;49847;-61
2021/11/11 10:06:17;;;;;;;;;94.00;80.00;;;;;;;;5070976;28;49557;-61
2021/11/11 10:08:43;;;;;;;;;96.67;85.67;;;;;;;;5070206;27;49775;-60
2021/11/11 10:11:31;;;;;;;;;100.00;85.33;;;;;;;;5070590;28;49904;-60
2021/11/11 10:13:57;;;;;;;;;96.33;75.67;;;;;;;;5069600;28;49782;-61
2021/11/11 10:16:22;;;;;;;;;88.00;72.33;;;;;;;;5073550;27;49567;-62
2021/11/11 10:19:06;;;;;;;;;99.33;87.33;;;;;;;;5072839;27;50945;-70
2021/11/11 10:21:40;;;;;;;;;96.00;82.67;;;;;;;;5053033;28;49686;-65
2021/11/11 10:24:15;;;;;;;;;97.33;78.67;;;;;;;;5070644;27;49801;-69
2021/11/11 10:26:42;;;;;;;;;95.00;80.67;;;;;;;;5069694;27;49705;-67
2021/11/11 10:29:23;;;;;;;;;93.67;81.33;;;;;;;;5070661;28;50475;-67
2021/11/11 10:31:54;;;;;;;;;90.67;76.33;;;;;;;;5070689;27;49748;-68
2021/11/11 10:34:20;;;;;;;;;97.67;82.33;;;;;;;;5070306;28;49777;-70
2021/11/11 10:36:46;;;;;;;;;89.67;77.33;;;;;;;;5069237;28;49628;-68
2021/11/11 10:39:13;;;;;;;;;94.33;78.67;;;;;;;;5068119;27;50200;-70
2021/11/11 10:41:38;;;;;;;;;95.67;81.33;;;;;;;;5051823;28;49923;-70
2021/11/11 10:44:16;;;;;;;;;100.00;91.33;;;;;;;;5069324;28;49928;-67
2021/11/11 10:46:51;;;;;;;;;91.67;77.67;;;;;;;;5070099;28;50009;-70
2021/11/11 10:49:17;;;;;;;;;94.33;84.00;;;;;;;;5069352;28;49974;-71
2021/11/11 10:51:42;;;;;;;;;95.67;81.67;;;;;;;;5070044;28;49943;-69
2021/11/11 10:54:07;;;;;;;;;95.00;79.67;;;;;;;;5070519;28;49621;-74
2021/11/11 10:56:40;;;;;;;;;91.00;77.00;;;;;;;;5071015;28;49562;-63
2021/11/11 10:59:12;;;;;;;;;94.67;82.33;;;;;;;;5073840;28;50677;-68
2021/11/11 11:01:37;;;;;;;;;94.33;85.00;;;;;;;;5073482;28;49709;-70
2021/11/11 11:04:02;;;;;;;;;90.00;76.00;;;;;;;;5072471;28;49905;-69
2021/11/11 11:06:28;;;;;;;;;89.00;74.33;;;;;;;;5072098;28;49841;-62
2021/11/11 11:08:59;;;;;;;;;89.33;70.33;;;;;;;;5072081;28;49873;-64
2021/11/11 11:11:30;;;;;;;;;91.33;74.67;;;;;;;;5072283;28;50570;-71
2021/11/11 11:13:57;;;;;;;;;96.33;74.33;;;;;;;;5071318;28;49764;-70
2021/11/11 11:16:23;;;;;;;;;82.67;65.67;;;;;;;;5073801;27;50005;-65
2021/11/11 11:18:49;;;;;;;;;89.00;70.67;;;;;;;;5073506;28;50564;-66
2021/11/11 11:21:18;;;;;;;;;93.33;80.00;;;;;;;;5073446;28;49627;-66
2021/11/11 11:23:49;;;;;;;;;89.33;72.67;;;;;;;;5055219;28;49882;-65
2021/11/11 11:26:21;;;;;;;;;86.33;72.00;;;;;;;;5073478;28;51263;-65
2021/11/11 11:28:49;;;;;;;;;90.67;74.67;;;;;;;;5073181;28;49732;-70
2021/11/11 11:31:25;;;;;;;;;94.00;77.33;;;;;;;;5073760;28;49970;-69
2021/11/11 11:33:50;;;;;;;;;87.67;74.67;;;;;;;;5073566;28;49771;-71
2021/11/11 11:36:16;;;;;;;;;92.33;71.33;;;;;;;;5073120;28;49491;-64
2021/11/11 11:38:51;;;;;;;;;90.00;70.00;;;;;;;;5073056;28;50652;-64
2021/11/11 11:41:29;;;;;;;;;91.00;75.33;;;;;;;;5073339;28;49676;-66
2021/11/11 11:43:55;;;;;;;;;95.67;76.00;;;;;;;;5057683;27;49697;-62
2021/11/11 11:46:23;;;;;;;;;90.33;75.33;;;;;;;;5036796;28;49682;-65
2021/11/11 11:48:48;;;;;;;;;92.33;74.67;;;;;;;;5052704;28;50806;-61
2021/11/11 11:51:14;;;;;;;;;90.33;78.00;;;;;;;;5052556;28;49876;-61
2021/11/11 11:56:48;;;;;;;;;86.33;66.33;;;;;;;;5018134;28;50863;-60
2021/11/11 11:59:17;;;;;;;;;78.50;62.25;;;;;;;;5034640;28;51664;-65
2021/11/11 12:02:36;;;;;;;;;79.75;63.50;;;;;;;;5052416;28;49560;-65
2021/11/11 12:09:58;;;;;;;;;69.75;57.25;;;;;;;;5033875;28;50341;-62
2021/11/11 12:14:56;;;;;;;;;76.75;60.75;;;;;;;;5052625;28;49700;-66
2021/11/11 12:28:57;;;;;;;;;67.75;55.25;;;;;;;;5052417;28;49958;-65
2021/11/11 12:39:34;;;;;;;;;63.00;51.75;;;;;;;;5072323;27;49696;-71
2021/11/11 12:42:03;;;;;;;;;63.75;51.25;;;;;;;;5071484;28;49788;-70
2021/11/11 12:44:29;;;;;;;;;58.50;48.25;;;;;;;;5072069;27;49910;-69
2021/11/11 12:46:54;;;;;;;;;62.25;51.25;;;;;;;;5053966;28;50308;-69
2021/11/11 12:49:26;;;;;;;;;58.50;49.00;;;;;;;;5074881;28;49671;-69
2021/11/11 12:52:07;;;;;;;;;57.00;46.25;;;;;;;;5071448;27;50378;-65
2021/11/11 12:54:32;;;;;;;;;54.50;45.00;;;;;;;;5071718;27;49592;-66
2021/11/11 12:57:01;;;;;;;;;51.50;41.25;;;;;;;;5071962;28;49557;-64
2021/11/11 12:59:26;;;;;;;;;59.50;47.00;;;;;;;;5071921;27;49910;-65
2021/11/11 13:01:52;;;;;;;;;55.50;45.00;;;;;;;;5053019;28;50351;-63
2021/11/11 13:04:19;;;;;;;;;61.50;50.50;;;;;;;;5071188;28;49849;-67
2021/11/11 13:06:48;;;;;;;;;57.00;45.00;;;;;;;;5069962;28;49632;-64
2021/11/11 13:09:32;;;;;;;;;57.75;46.50;;;;;;;;5070384;27;50182;-64
2021/11/11 13:12:07;;;;;;;;;64.25;50.00;;;;;;;;5067534;28;51244;-64
2021/11/11 13:14:48;;;;;;;;;61.00;48.00;;;;;;;;5070670;27;49712;-67
2021/11/11 13:17:13;;;;;;;;;59.75;50.50;;;;;;;;5069741;27;49894;-65
2021/11/11 13:19:40;;;;;;;;;67.25;53.50;;;;;;;;5070035;27;50312;-64
2021/11/11 13:22:09;;;;;;;;;69.75;53.50;;;;;;;;5070107;27;50706;-66
2021/11/11 13:24:46;;;;;;;;;69.75;57.50;;;;;;;;5070990;28;49851;-67
2021/11/11 13:27:37;;;;;;;;;71.50;54.75;;;;;;;;5071485;27;49653;-65
2021/11/11 15:15:42;;;;;;;;;74.75;57.25;;;;;;;;5050141;28;49921;-74
2021/11/11 16:21:42;;;;;;;;;64.00;50.25;;;;;;;;5072530;28;49798;-77
2021/11/11 16:24:14;;;;;;;;;66.25;53.75;;;;;;;;5072373;27;49866;-77
2021/11/11 16:26:39;;;;;;;;;66.25;51.25;;;;;;;;5072724;28;49779;-77
2021/11/11 16:29:05;;;;;;;;;59.25;48.50;;;;;;;;5071186;28;50297;-78
2021/11/11 16:31:30;;;;;;;;;60.75;47.75;;;;;;;;5072200;27;49885;-76
2021/11/11 16:33:59;;;;;;;;;62.75;49.75;;;;;;;;5072485;27;49619;-78
2021/11/11 16:36:25;;;;;;;;;61.00;50.50;;;;;;;;5072542;27;49804;-75
2021/11/11 16:38:51;;;;;;;;;63.50;53.50;;;;;;;;5070307;28;50139;-78
2021/11/11 16:41:16;;;;;;;;;61.75;48.25;;;;;;;;5071557;27;49698;-78
2021/11/11 16:43:42;;;;;;;;;58.75;47.25;;;;;;;;5071791;28;49826;-76
2021/11/11 16:46:07;;;;;;;;;58.75;48.75;;;;;;;;5070574;28;49819;-78
2021/11/11 16:48:33;;;;;;;;;63.25;51.75;;;;;;;;5071418;28;50409;-76
2021/11/11 16:50:59;;;;;;;;;60.25;49.25;;;;;;;;5071552;27;49659;-78
2021/11/11 16:53:26;;;;;;;;;60.00;48.25;;;;;;;;5071782;28;49755;-77
2021/11/11 16:55:52;;;;;;;;;59.50;47.75;;;;;;;;5072016;27;49673;-77
2021/11/11 16:58:17;;;;;;;;;60.25;47.00;;;;;;;;5070664;28;49754;-78
2021/11/11 17:00:42;;;;;;;;;60.25;48.00;;;;;;;;5072152;27;49829;-76
2021/11/11 17:03:09;;;;;;;;;57.25;47.50;;;;;;;;5072208;27;49772;-76
2021/11/11 17:05:34;;;;;;;;;51.25;44.50;;;;;;;;5072304;27;49829;-80
2021/11/11 17:07:59;;;;;;;;;69.25;53.00;;;;;;;;5070482;28;49842;-79
2021/11/11 17:10:25;;;;;;;;;57.50;46.00;;;;;;;;5071950;27;49837;-76
2021/11/11 17:12:50;;;;;;;;;60.50;47.00;;;;;;;;5072381;27;49915;-75
2021/11/11 17:15:19;;;;;;;;;30.00;25.25;;;;;;;;5072197;27;49715;-73
2021/11/11 17:17:47;;;;;;;;;55.75;47.25;;;;;;;;5071538;27;50285;-71
2021/11/11 17:20:16;;;;;;;;;55.00;46.00;;;;;;;;5071724;27;49691;-71
2021/11/11 17:22:47;;;;;;;;;58.75;46.50;;;;;;;;5070335;28;49870;-73
2021/11/11 17:30:36;;;;;;;;;54.00;44.00;;;;;;;;5071642;27;49706;-76
2021/11/11 17:33:01;;;;;;;;;62.75;50.50;;;;;;;;5053577;28;49765;-71
2021/11/11 17:35:26;;;;;;;;;57.75;43.75;;;;;;;;5074878;27;57194;-74
2021/11/11 17:37:52;;;;;;;;;57.75;48.00;;;;;;;;5071189;27;50245;-73
2021/11/11 17:40:18;;;;;;;;;66.00;51.75;;;;;;;;5071634;27;49750;-75
2021/11/11 17:42:44;;;;;;;;;61.00;49.00;;;;;;;;5062892;27;49708;-72
2021/11/11 17:45:10;;;;;;;;;67.00;54.25;;;;;;;;5053615;28;50105;-76
2021/11/11 17:47:36;;;;;;;;;63.25;50.75;;;;;;;;5051080;28;50735;-74
2021/11/11 17:50:06;;;;;;;;;62.50;51.75;;;;;;;;5051042;28;49859;-75
2021/11/11 17:52:34;;;;;;;;;62.75;49.25;;;;;;;;5050990;28;49731;-72
2021/11/11 17:55:02;;;;;;;;;55.75;46.25;;;;;;;;5052444;28;49879;-75
2021/11/11 17:57:33;;;;;;;;;62.50;52.50;;;;;;;;5050482;28;50563;-73